Terminal Aerodrome Forecast
Issued by NWS

Home | Current Version | Previous Version | Text Only | Print | Product List | Glossary On
Versions: 1 2 3 4 5 6 7 8 9 10 11 12 13 14 15 16 17 18 19 20 21
000
FTUS46 KLOX 211500 AAA
TAFSBP
TAF AMD
KSBP 211521Z 2115/2212 33003KT 6SM BR OVC009
     FM211800 31006KT P6SM SKC
     FM212100 31012KT P6SM SKC
     FM220500 31007KT P6SM OVC010
     FM220800 VRB03KT 5SM BR OVC006=

USA.gov is the U.S. government's official web portal to all federal, state and local government web resources and services.